sensor_id;sensor_type;location;lat;lon;timestamp;P1;durP1;ratioP1;P2;durP2;ratioP2
1601;SDS011;794;48.592;9.634;2023-02-21T00:02:06;2.07;;;1.27;;
1601;SDS011;794;48.592;9.634;2023-02-21T00:04:53;1.20;;;1.10;;
1601;SDS011;794;48.592;9.634;2023-02-21T00:07:37;3.37;;;1.40;;
1601;SDS011;794;48.592;9.634;2023-02-21T00:10:22;1.23;;;1.13;;
1601;SDS011;794;48.592;9.634;2023-02-21T00:13:07;2.23;;;1.20;;
1601;SDS011;794;48.592;9.634;2023-02-21T00:15:51;1.60;;;1.10;;
1601;SDS011;794;48.592;9.634;2023-02-21T00:18:36;1.30;;;1.20;;
1601;SDS011;794;48.592;9.634;2023-02-21T00:21:23;1.47;;;1.37;;
1601;SDS011;794;48.592;9.634;2023-02-21T00:24:11;1.10;;;1.00;;
1601;SDS011;794;48.592;9.634;2023-02-21T00:26:56;4.43;;;1.00;;
1601;SDS011;794;48.592;9.634;2023-02-21T00:29:40;1.90;;;1.23;;
1601;SDS011;794;48.592;9.634;2023-02-21T00:32:24;1.33;;;1.03;;
1601;SDS011;794;48.592;9.634;2023-02-21T00:35:09;2.80;;;1.03;;
1601;SDS011;794;48.592;9.634;2023-02-21T00:37:54;3.30;;;1.10;;
1601;SDS011;794;48.592;9.634;2023-02-21T00:40:39;1.30;;;1.20;;
1601;SDS011;794;48.592;9.634;2023-02-21T00:43:27;1.60;;;1.00;;
1601;SDS011;794;48.592;9.634;2023-02-21T00:46:11;2.70;;;1.03;;
1601;SDS011;794;48.592;9.634;2023-02-21T00:48:56;1.97;;;1.47;;
1601;SDS011;794;48.592;9.634;2023-02-21T00:51:40;0.97;;;0.97;;
1601;SDS011;794;48.592;9.634;2023-02-21T00:54:26;4.10;;;0.93;;
1601;SDS011;794;48.592;9.634;2023-02-21T00:57:10;2.63;;;1.37;;
1601;SDS011;794;48.592;9.634;2023-02-21T00:59:55;1.60;;;1.50;;
1601;SDS011;794;48.592;9.634;2023-02-21T01:02:40;1.10;;;1.00;;
1601;SDS011;794;48.592;9.634;2023-02-21T01:05:24;1.20;;;1.10;;
1601;SDS011;794;48.592;9.634;2023-02-21T01:08:09;1.23;;;1.13;;
1601;SDS011;794;48.592;9.634;2023-02-21T01:10:54;0.93;;;0.83;;
1601;SDS011;794;48.592;9.634;2023-02-21T01:13:38;2.17;;;1.00;;
1601;SDS011;794;48.592;9.634;2023-02-21T01:16:23;1.07;;;1.07;;
1601;SDS011;794;48.592;9.634;2023-02-21T01:19:10;2.87;;;1.10;;
1601;SDS011;794;48.592;9.634;2023-02-21T01:21:54;1.30;;;0.97;;
1601;SDS011;794;48.592;9.634;2023-02-21T01:24:38;1.27;;;0.93;;
1601;SDS011;794;48.592;9.634;2023-02-21T01:27:24;1.63;;;1.33;;
1601;SDS011;794;48.592;9.634;2023-02-21T01:30:09;1.77;;;1.13;;
1601;SDS011;794;48.592;9.634;2023-02-21T01:32:53;1.33;;;1.23;;
1601;SDS011;794;48.592;9.634;2023-02-21T01:35:38;1.13;;;1.03;;
1601;SDS011;794;48.592;9.634;2023-02-21T01:38:22;2.07;;;1.87;;
1601;SDS011;794;48.592;9.634;2023-02-21T01:41:06;1.27;;;1.10;;
1601;SDS011;794;48.592;9.634;2023-02-21T01:43:57;1.30;;;1.20;;
1601;SDS011;794;48.592;9.634;2023-02-21T01:46:43;1.40;;;1.30;;
1601;SDS011;794;48.592;9.634;2023-02-21T01:49:28;1.00;;;1.00;;
1601;SDS011;794;48.592;9.634;2023-02-21T01:52:12;1.20;;;1.10;;
1601;SDS011;794;48.592;9.634;2023-02-21T01:54:57;1.50;;;1.10;;
1601;SDS011;794;48.592;9.634;2023-02-21T01:57:43;1.37;;;1.27;;
1601;SDS011;794;48.592;9.634;2023-02-21T02:00:30;1.57;;;1.47;;
1601;SDS011;794;48.592;9.634;2023-02-21T02:03:15;1.13;;;1.03;;
1601;SDS011;794;48.592;9.634;2023-02-21T02:06:02;1.90;;;1.60;;
1601;SDS011;794;48.592;9.634;2023-02-21T02:08:49;2.00;;;1.10;;
1601;SDS011;794;48.592;9.634;2023-02-21T02:11:41;3.17;;;1.27;;
1601;SDS011;794;48.592;9.634;2023-02-21T02:17:35;1.43;;;1.33;;
1601;SDS011;794;48.592;9.634;2023-02-21T02:20:34;1.20;;;1.10;;
1601;SDS011;794;48.592;9.634;2023-02-21T02:23:38;1.97;;;1.10;;
1601;SDS011;794;48.592;9.634;2023-02-21T02:29:51;1.20;;;1.10;;
1601;SDS011;794;48.592;9.634;2023-02-21T02:32:49;1.00;;;1.00;;
1601;SDS011;794;48.592;9.634;2023-02-21T02:35:34;2.80;;;1.40;;
1601;SDS011;794;48.592;9.634;2023-02-21T02:38:08;3.03;;;1.67;;
1601;SDS011;794;48.592;9.634;2023-02-21T02:40:41;0.93;;;0.87;;
1601;SDS011;794;48.592;9.634;2023-02-21T02:43:24;1.83;;;1.03;;
1601;SDS011;794;48.592;9.634;2023-02-21T02:45:55;2.40;;;1.30;;
1601;SDS011;794;48.592;9.634;2023-02-21T02:48:28;1.47;;;1.37;;
1601;SDS011;794;48.592;9.634;2023-02-21T02:51:02;1.10;;;1.00;;
1601;SDS011;794;48.592;9.634;2023-02-21T02:53:33;1.87;;;1.20;;
1601;SDS011;794;48.592;9.634;2023-02-21T02:56:01;1.43;;;1.33;;
1601;SDS011;794;48.592;9.634;2023-02-21T02:58:30;1.30;;;1.20;;
1601;SDS011;794;48.592;9.634;2023-02-21T03:01:06;1.17;;;1.07;;
1601;SDS011;794;48.592;9.634;2023-02-21T03:03:46;1.63;;;1.20;;
1601;SDS011;794;48.592;9.634;2023-02-21T03:06:27;3.13;;;1.50;;
1601;SDS011;794;48.592;9.634;2023-02-21T03:09:01;1.10;;;0.90;;
1601;SDS011;794;48.592;9.634;2023-02-21T03:11:38;1.23;;;1.10;;
1601;SDS011;794;48.592;9.634;2023-02-21T03:14:13;1.37;;;1.30;;
1601;SDS011;794;48.592;9.634;2023-02-21T03:16:43;1.40;;;1.30;;
1601;SDS011;794;48.592;9.634;2023-02-21T03:19:15;1.50;;;1.40;;
1601;SDS011;794;48.592;9.634;2023-02-21T03:21:48;1.40;;;1.20;;
1601;SDS011;794;48.592;9.634;2023-02-21T03:24:18;0.80;;;0.80;;
1601;SDS011;794;48.592;9.634;2023-02-21T03:26:47;1.30;;;1.20;;
1601;SDS011;794;48.592;9.634;2023-02-21T03:29:17;4.57;;;1.43;;
1601;SDS011;794;48.592;9.634;2023-02-21T03:31:46;1.23;;;1.13;;
1601;SDS011;794;48.592;9.634;2023-02-21T03:34:17;0.97;;;0.97;;
1601;SDS011;794;48.592;9.634;2023-02-21T03:36:44;1.83;;;1.47;;
1601;SDS011;794;48.592;9.634;2023-02-21T03:39:12;1.13;;;1.03;;
1601;SDS011;794;48.592;9.634;2023-02-21T03:41:39;1.20;;;1.13;;
1601;SDS011;794;48.592;9.634;2023-02-21T03:44:06;0.90;;;0.90;;
1601;SDS011;794;48.592;9.634;2023-02-21T03:46:33;2.00;;;1.30;;
1601;SDS011;794;48.592;9.634;2023-02-21T03:49:00;1.00;;;1.00;;
1601;SDS011;794;48.592;9.634;2023-02-21T03:51:27;2.40;;;1.87;;
1601;SDS011;794;48.592;9.634;2023-02-21T03:53:54;1.27;;;1.17;;
1601;SDS011;794;48.592;9.634;2023-02-21T03:56:22;2.10;;;1.03;;
1601;SDS011;794;48.592;9.634;2023-02-21T03:58:49;1.20;;;1.00;;
1601;SDS011;794;48.592;9.634;2023-02-21T04:01:16;0.90;;;0.90;;
1601;SDS011;794;48.592;9.634;2023-02-21T04:03:43;2.10;;;1.17;;
1601;SDS011;794;48.592;9.634;2023-02-21T04:06:10;1.43;;;1.30;;
1601;SDS011;794;48.592;9.634;2023-02-21T04:08:37;1.60;;;1.50;;
1601;SDS011;794;48.592;9.634;2023-02-21T04:11:04;1.30;;;1.20;;
1601;SDS011;794;48.592;9.634;2023-02-21T04:13:32;1.20;;;1.10;;
1601;SDS011;794;48.592;9.634;2023-02-21T04:15:59;1.10;;;1.00;;
1601;SDS011;794;48.592;9.634;2023-02-21T04:18:26;1.10;;;1.00;;
1601;SDS011;794;48.592;9.634;2023-02-21T04:20:53;2.10;;;1.10;;
1601;SDS011;794;48.592;9.634;2023-02-21T04:23:20;1.30;;;1.20;;
1601;SDS011;794;48.592;9.634;2023-02-21T04:25:47;4.20;;;1.30;;
1601;SDS011;794;48.592;9.634;2023-02-21T04:28:14;1.80;;;1.10;;
1601;SDS011;794;48.592;9.634;2023-02-21T04:30:42;1.37;;;1.27;;
1601;SDS011;794;48.592;9.634;2023-02-21T04:33:09;1.10;;;1.00;;
1601;SDS011;794;48.592;9.634;2023-02-21T04:35:37;1.60;;;1.00;;
1601;SDS011;794;48.592;9.634;2023-02-21T04:38:04;0.93;;;0.87;;
1601;SDS011;794;48.592;9.634;2023-02-21T04:40:31;0.90;;;0.90;;
1601;SDS011;794;48.592;9.634;2023-02-21T04:42:57;1.23;;;1.13;;
1601;SDS011;794;48.592;9.634;2023-02-21T04:45:24;1.17;;;1.07;;
1601;SDS011;794;48.592;9.634;2023-02-21T04:47:53;2.60;;;0.80;;
1601;SDS011;794;48.592;9.634;2023-02-21T04:50:20;7.30;;;1.07;;
1601;SDS011;794;48.592;9.634;2023-02-21T04:52:47;1.27;;;1.17;;
1601;SDS011;794;48.592;9.634;2023-02-21T04:55:14;1.33;;;0.90;;
1601;SDS011;794;48.592;9.634;2023-02-21T04:57:41;0.87;;;0.87;;
1601;SDS011;794;48.592;9.634;2023-02-21T05:00:09;1.53;;;1.00;;
1601;SDS011;794;48.592;9.634;2023-02-21T05:02:37;6.30;;;1.13;;
1601;SDS011;794;48.592;9.634;2023-02-21T05:05:10;2.27;;;1.83;;
1601;SDS011;794;48.592;9.634;2023-02-21T05:07:37;3.53;;;1.57;;
1601;SDS011;794;48.592;9.634;2023-02-21T05:10:07;1.10;;;0.73;;
1601;SDS011;794;48.592;9.634;2023-02-21T05:12:35;0.83;;;0.80;;
1601;SDS011;794;48.592;9.634;2023-02-21T05:15:03;2.00;;;1.00;;
1601;SDS011;794;48.592;9.634;2023-02-21T05:17:31;1.40;;;1.10;;
1601;SDS011;794;48.592;9.634;2023-02-21T05:19:58;2.60;;;1.10;;
1601;SDS011;794;48.592;9.634;2023-02-21T05:22:27;1.93;;;1.00;;
1601;SDS011;794;48.592;9.634;2023-02-21T05:24:54;1.20;;;0.87;;
1601;SDS011;794;48.592;9.634;2023-02-21T05:27:21;1.23;;;1.13;;
1601;SDS011;794;48.592;9.634;2023-02-21T05:29:48;1.10;;;1.10;;
1601;SDS011;794;48.592;9.634;2023-02-21T05:32:16;4.40;;;1.27;;
1601;SDS011;794;48.592;9.634;2023-02-21T05:34:44;1.27;;;1.17;;
1601;SDS011;794;48.592;9.634;2023-02-21T05:37:11;2.07;;;1.33;;
1601;SDS011;794;48.592;9.634;2023-02-21T05:39:40;1.50;;;1.40;;
1601;SDS011;794;48.592;9.634;2023-02-21T05:42:08;2.87;;;1.20;;
1601;SDS011;794;48.592;9.634;2023-02-21T05:44:35;0.80;;;0.77;;
1601;SDS011;794;48.592;9.634;2023-02-21T05:47:01;1.27;;;1.17;;
1601;SDS011;794;48.592;9.634;2023-02-21T05:49:31;1.90;;;1.00;;
1601;SDS011;794;48.592;9.634;2023-02-21T05:51:58;1.53;;;1.43;;
1601;SDS011;794;48.592;9.634;2023-02-21T05:54:25;0.90;;;0.90;;
1601;SDS011;794;48.592;9.634;2023-02-21T05:56:53;2.53;;;1.00;;
1601;SDS011;794;48.592;9.634;2023-02-21T05:59:20;2.50;;;1.20;;
1601;SDS011;794;48.592;9.634;2023-02-21T06:01:48;1.37;;;0.90;;
1601;SDS011;794;48.592;9.634;2023-02-21T06:04:15;1.10;;;1.10;;
1601;SDS011;794;48.592;9.634;2023-02-21T06:06:43;1.00;;;1.00;;
1601;SDS011;794;48.592;9.634;2023-02-21T06:09:10;1.07;;;1.00;;
1601;SDS011;794;48.592;9.634;2023-02-21T06:11:37;2.50;;;1.90;;
1601;SDS011;794;48.592;9.634;2023-02-21T06:14:07;1.90;;;1.80;;
1601;SDS011;794;48.592;9.634;2023-02-21T06:16:39;1.90;;;1.80;;
1601;SDS011;794;48.592;9.634;2023-02-21T06:19:06;4.13;;;2.43;;
1601;SDS011;794;48.592;9.634;2023-02-21T06:21:34;3.87;;;2.77;;
1601;SDS011;794;48.592;9.634;2023-02-21T06:24:02;1.57;;;1.47;;
1601;SDS011;794;48.592;9.634;2023-02-21T06:26:29;2.03;;;1.83;;
1601;SDS011;794;48.592;9.634;2023-02-21T06:28:56;1.93;;;1.83;;
1601;SDS011;794;48.592;9.634;2023-02-21T06:31:25;2.10;;;1.87;;
1601;SDS011;794;48.592;9.634;2023-02-21T06:33:52;5.27;;;2.07;;
1601;SDS011;794;48.592;9.634;2023-02-21T06:36:20;4.40;;;2.60;;
1601;SDS011;794;48.592;9.634;2023-02-21T06:38:49;2.13;;;1.93;;
1601;SDS011;794;48.592;9.634;2023-02-21T06:41:18;1.63;;;1.50;;
1601;SDS011;794;48.592;9.634;2023-02-21T06:43:48;2.40;;;1.40;;
1601;SDS011;794;48.592;9.634;2023-02-21T06:46:15;1.47;;;1.37;;
1601;SDS011;794;48.592;9.634;2023-02-21T06:48:44;7.87;;;4.10;;
1601;SDS011;794;48.592;9.634;2023-02-21T06:51:11;3.10;;;2.30;;
1601;SDS011;794;48.592;9.634;2023-02-21T06:53:38;3.17;;;1.70;;
1601;SDS011;794;48.592;9.634;2023-02-21T06:56:05;3.00;;;1.80;;
1601;SDS011;794;48.592;9.634;2023-02-21T06:58:33;1.50;;;1.27;;
1601;SDS011;794;48.592;9.634;2023-02-21T07:01:00;1.73;;;1.20;;
1601;SDS011;794;48.592;9.634;2023-02-21T07:03:27;1.80;;;1.70;;
1601;SDS011;794;48.592;9.634;2023-02-21T07:05:56;1.63;;;1.50;;
1601;SDS011;794;48.592;9.634;2023-02-21T07:08:23;4.47;;;2.90;;
1601;SDS011;794;48.592;9.634;2023-02-21T07:10:50;6.90;;;4.60;;
1601;SDS011;794;48.592;9.634;2023-02-21T07:13:17;4.77;;;3.53;;
1601;SDS011;794;48.592;9.634;2023-02-21T07:15:44;2.00;;;1.80;;
1601;SDS011;794;48.592;9.634;2023-02-21T07:18:11;2.40;;;2.00;;
1601;SDS011;794;48.592;9.634;2023-02-21T07:20:38;4.00;;;3.23;;
1601;SDS011;794;48.592;9.634;2023-02-21T07:23:07;2.50;;;2.30;;
1601;SDS011;794;48.592;9.634;2023-02-21T07:25:34;2.20;;;1.80;;
1601;SDS011;794;48.592;9.634;2023-02-21T07:28:01;1.57;;;1.47;;
1601;SDS011;794;48.592;9.634;2023-02-21T07:30:28;3.00;;;1.30;;
1601;SDS011;794;48.592;9.634;2023-02-21T07:32:55;3.17;;;1.90;;
1601;SDS011;794;48.592;9.634;2023-02-21T07:35:22;1.87;;;1.77;;
1601;SDS011;794;48.592;9.634;2023-02-21T07:37:49;5.93;;;1.93;;
1601;SDS011;794;48.592;9.634;2023-02-21T07:40:18;8.60;;;2.30;;
1601;SDS011;794;48.592;9.634;2023-02-21T07:42:45;14.97;;;2.70;;
1601;SDS011;794;48.592;9.634;2023-02-21T07:45:13;2.50;;;1.50;;
1601;SDS011;794;48.592;9.634;2023-02-21T07:47:41;2.30;;;1.50;;
1601;SDS011;794;48.592;9.634;2023-02-21T07:50:10;10.03;;;2.33;;
1601;SDS011;794;48.592;9.634;2023-02-21T07:52:37;2.03;;;1.67;;
1601;SDS011;794;48.592;9.634;2023-02-21T07:55:04;1.37;;;1.20;;
1601;SDS011;794;48.592;9.634;2023-02-21T07:57:33;1.93;;;1.07;;
1601;SDS011;794;48.592;9.634;2023-02-21T08:00:00;2.23;;;1.00;;
1601;SDS011;794;48.592;9.634;2023-02-21T08:02:28;1.17;;;1.07;;
1601;SDS011;794;48.592;9.634;2023-02-21T08:04:55;1.23;;;1.13;;
1601;SDS011;794;48.592;9.634;2023-02-21T08:07:22;2.27;;;1.43;;
1601;SDS011;794;48.592;9.634;2023-02-21T08:09:50;3.33;;;2.23;;
1601;SDS011;794;48.592;9.634;2023-02-21T08:12:17;4.83;;;2.77;;
1601;SDS011;794;48.592;9.634;2023-02-21T08:14:45;3.23;;;1.47;;
1601;SDS011;794;48.592;9.634;2023-02-21T08:17:12;1.70;;;1.60;;
1601;SDS011;794;48.592;9.634;2023-02-21T08:19:39;3.47;;;1.90;;
1601;SDS011;794;48.592;9.634;2023-02-21T08:22:06;3.43;;;2.37;;
1601;SDS011;794;48.592;9.634;2023-02-21T08:24:33;4.83;;;4.43;;
1601;SDS011;794;48.592;9.634;2023-02-21T08:27:00;3.33;;;2.27;;
1601;SDS011;794;48.592;9.634;2023-02-21T08:29:27;2.10;;;1.90;;
1601;SDS011;794;48.592;9.634;2023-02-21T08:31:55;7.00;;;1.73;;
1601;SDS011;794;48.592;9.634;2023-02-21T08:34:22;2.47;;;1.90;;
1601;SDS011;794;48.592;9.634;2023-02-21T08:36:49;1.93;;;1.60;;
1601;SDS011;794;48.592;9.634;2023-02-21T08:39:16;1.30;;;1.20;;
1601;SDS011;794;48.592;9.634;2023-02-21T08:41:44;3.57;;;2.47;;
1601;SDS011;794;48.592;9.634;2023-02-21T08:44:13;1.93;;;1.83;;
1601;SDS011;794;48.592;9.634;2023-02-21T08:46:41;1.97;;;1.70;;
1601;SDS011;794;48.592;9.634;2023-02-21T08:49:10;1.87;;;1.23;;
1601;SDS011;794;48.592;9.634;2023-02-21T08:51:36;2.40;;;0.97;;
1601;SDS011;794;48.592;9.634;2023-02-21T08:54:04;2.00;;;1.10;;
1601;SDS011;794;48.592;9.634;2023-02-21T08:56:31;0.73;;;0.73;;
1601;SDS011;794;48.592;9.634;2023-02-21T08:58:59;0.97;;;0.60;;
1601;SDS011;794;48.592;9.634;2023-02-21T09:01:30;1.07;;;0.73;;
1601;SDS011;794;48.592;9.634;2023-02-21T09:03:57;0.97;;;0.70;;
1601;SDS011;794;48.592;9.634;2023-02-21T09:06:26;1.60;;;0.93;;
1601;SDS011;794;48.592;9.634;2023-02-21T09:08:53;1.83;;;0.70;;
1601;SDS011;794;48.592;9.634;2023-02-21T09:11:20;1.27;;;0.60;;
1601;SDS011;794;48.592;9.634;2023-02-21T09:13:50;1.50;;;0.83;;
1601;SDS011;794;48.592;9.634;2023-02-21T09:16:19;1.37;;;1.00;;
1601;SDS011;794;48.592;9.634;2023-02-21T09:18:52;1.77;;;0.67;;
1601;SDS011;794;48.592;9.634;2023-02-21T09:21:20;1.03;;;0.60;;
1601;SDS011;794;48.592;9.634;2023-02-21T09:23:48;0.97;;;0.60;;
1601;SDS011;794;48.592;9.634;2023-02-21T09:26:18;0.60;;;0.60;;
1601;SDS011;794;48.592;9.634;2023-02-21T09:28:46;0.87;;;0.63;;
1601;SDS011;794;48.592;9.634;2023-02-21T09:31:13;1.57;;;0.70;;
1601;SDS011;794;48.592;9.634;2023-02-21T09:33:40;0.63;;;0.60;;
1601;SDS011;794;48.592;9.634;2023-02-21T09:36:07;0.90;;;0.80;;
1601;SDS011;794;48.592;9.634;2023-02-21T09:38:35;1.63;;;0.70;;
1601;SDS011;794;48.592;9.634;2023-02-21T09:41:08;1.40;;;0.80;;
1601;SDS011;794;48.592;9.634;2023-02-21T09:43:37;1.97;;;0.70;;
1601;SDS011;794;48.592;9.634;2023-02-21T09:46:08;4.93;;;0.80;;
1601;SDS011;794;48.592;9.634;2023-02-21T09:48:42;1.00;;;0.60;;
1601;SDS011;794;48.592;9.634;2023-02-21T09:51:13;0.80;;;0.73;;
1601;SDS011;794;48.592;9.634;2023-02-21T09:53:41;1.00;;;0.70;;
1601;SDS011;794;48.592;9.634;2023-02-21T09:56:11;0.83;;;0.80;;
1601;SDS011;794;48.592;9.634;2023-02-21T09:58:46;1.07;;;0.70;;
1601;SDS011;794;48.592;9.634;2023-02-21T10:01:21;1.10;;;0.90;;
1601;SDS011;794;48.592;9.634;2023-02-21T10:04:07;1.50;;;0.80;;
1601;SDS011;794;48.592;9.634;2023-02-21T10:06:46;0.60;;;0.57;;
1601;SDS011;794;48.592;9.634;2023-02-21T10:09:20;2.00;;;1.10;;
1601;SDS011;794;48.592;9.634;2023-02-21T10:11:57;1.17;;;0.70;;
1601;SDS011;794;48.592;9.634;2023-02-21T10:14:33;0.90;;;0.60;;
1601;SDS011;794;48.592;9.634;2023-02-21T10:17:10;1.63;;;0.70;;
1601;SDS011;794;48.592;9.634;2023-02-21T10:19:42;1.13;;;0.80;;
1601;SDS011;794;48.592;9.634;2023-02-21T10:22:15;0.90;;;0.70;;
1601;SDS011;794;48.592;9.634;2023-02-21T10:24:45;1.70;;;1.13;;
1601;SDS011;794;48.592;9.634;2023-02-21T10:27:17;0.83;;;0.63;;
1601;SDS011;794;48.592;9.634;2023-02-21T10:29:47;1.10;;;0.90;;
1601;SDS011;794;48.592;9.634;2023-02-21T10:32:19;1.50;;;0.90;;
1601;SDS011;794;48.592;9.634;2023-02-21T10:34:48;0.87;;;0.80;;
1601;SDS011;794;48.592;9.634;2023-02-21T10:37:21;0.90;;;0.70;;
1601;SDS011;794;48.592;9.634;2023-02-21T10:40:00;1.80;;;1.20;;
1601;SDS011;794;48.592;9.634;2023-02-21T10:42:35;1.17;;;1.03;;
1601;SDS011;794;48.592;9.634;2023-02-21T10:45:06;1.27;;;1.17;;
1601;SDS011;794;48.592;9.634;2023-02-21T10:47:38;1.60;;;1.10;;
1601;SDS011;794;48.592;9.634;2023-02-21T10:50:14;4.00;;;3.60;;
1601;SDS011;794;48.592;9.634;2023-02-21T10:52:46;12.23;;;8.17;;
1601;SDS011;794;48.592;9.634;2023-02-21T10:55:16;1.47;;;1.37;;
1601;SDS011;794;48.592;9.634;2023-02-21T10:57:46;1.73;;;1.00;;
1601;SDS011;794;48.592;9.634;2023-02-21T11:00:19;1.80;;;1.33;;
1601;SDS011;794;48.592;9.634;2023-02-21T11:02:50;2.50;;;1.27;;
1601;SDS011;794;48.592;9.634;2023-02-21T11:05:21;1.70;;;1.40;;
1601;SDS011;794;48.592;9.634;2023-02-21T11:07:56;3.03;;;2.20;;
1601;SDS011;794;48.592;9.634;2023-02-21T11:10:27;2.67;;;1.70;;
1601;SDS011;794;48.592;9.634;2023-02-21T11:13:04;2.10;;;1.30;;
1601;SDS011;794;48.592;9.634;2023-02-21T11:15:42;1.87;;;1.00;;
1601;SDS011;794;48.592;9.634;2023-02-21T11:18:11;1.30;;;1.20;;
1601;SDS011;794;48.592;9.634;2023-02-21T11:20:44;1.63;;;1.10;;
1601;SDS011;794;48.592;9.634;2023-02-21T11:23:22;2.10;;;1.50;;
1601;SDS011;794;48.592;9.634;2023-02-21T11:25:56;2.27;;;1.43;;
1601;SDS011;794;48.592;9.634;2023-02-21T11:28:34;1.43;;;1.33;;
1601;SDS011;794;48.592;9.634;2023-02-21T11:31:10;4.00;;;1.87;;
1601;SDS011;794;48.592;9.634;2023-02-21T11:33:46;2.93;;;2.00;;
1601;SDS011;794;48.592;9.634;2023-02-21T11:36:20;3.50;;;2.00;;
1601;SDS011;794;48.592;9.634;2023-02-21T11:39:00;3.30;;;1.90;;
1601;SDS011;794;48.592;9.634;2023-02-21T11:41:34;2.73;;;1.77;;
1601;SDS011;794;48.592;9.634;2023-02-21T11:44:17;2.00;;;1.73;;
1601;SDS011;794;48.592;9.634;2023-02-21T11:46:49;1.77;;;1.50;;
1601;SDS011;794;48.592;9.634;2023-02-21T11:49:23;2.00;;;1.27;;
1601;SDS011;794;48.592;9.634;2023-02-21T11:51:57;2.80;;;1.90;;
1601;SDS011;794;48.592;9.634;2023-02-21T11:54:28;3.20;;;2.00;;
1601;SDS011;794;48.592;9.634;2023-02-21T11:56:57;3.77;;;2.10;;
1601;SDS011;794;48.592;9.634;2023-02-21T11:59:37;2.53;;;2.33;;
1601;SDS011;794;48.592;9.634;2023-02-21T12:02:17;6.07;;;4.07;;
1601;SDS011;794;48.592;9.634;2023-02-21T12:05:14;3.00;;;2.70;;
1601;SDS011;794;48.592;9.634;2023-02-21T12:07:57;3.67;;;3.37;;
1601;SDS011;794;48.592;9.634;2023-02-21T12:10:39;3.20;;;2.47;;
1601;SDS011;794;48.592;9.634;2023-02-21T12:13:15;3.63;;;2.70;;
1601;SDS011;794;48.592;9.634;2023-02-21T12:15:55;2.50;;;2.17;;
1601;SDS011;794;48.592;9.634;2023-02-21T12:18:34;4.07;;;3.67;;
1601;SDS011;794;48.592;9.634;2023-02-21T12:21:24;4.27;;;1.90;;
1601;SDS011;794;48.592;9.634;2023-02-21T12:24:03;1.90;;;1.80;;
1601;SDS011;794;48.592;9.634;2023-02-21T12:26:42;1.60;;;1.30;;
1601;SDS011;794;48.592;9.634;2023-02-21T12:29:18;5.17;;;1.67;;
1601;SDS011;794;48.592;9.634;2023-02-21T12:32:02;3.00;;;2.73;;
1601;SDS011;794;48.592;9.634;2023-02-21T12:34:53;5.47;;;1.87;;
1601;SDS011;794;48.592;9.634;2023-02-21T12:37:32;5.07;;;2.10;;
1601;SDS011;794;48.592;9.634;2023-02-21T12:40:28;3.13;;;1.80;;
1601;SDS011;794;48.592;9.634;2023-02-21T12:43:10;4.47;;;2.00;;
1601;SDS011;794;48.592;9.634;2023-02-21T12:46:00;5.40;;;1.83;;
1601;SDS011;794;48.592;9.634;2023-02-21T12:48:39;2.53;;;2.00;;
1601;SDS011;794;48.592;9.634;2023-02-21T12:51:11;4.17;;;2.33;;
1601;SDS011;794;48.592;9.634;2023-02-21T12:53:44;1.93;;;1.70;;
1601;SDS011;794;48.592;9.634;2023-02-21T12:56:17;2.37;;;1.40;;
1601;SDS011;794;48.592;9.634;2023-02-21T12:58:50;2.43;;;1.90;;
1601;SDS011;794;48.592;9.634;2023-02-21T13:01:25;4.60;;;1.20;;
1601;SDS011;794;48.592;9.634;2023-02-21T13:04:02;2.30;;;2.10;;
1601;SDS011;794;48.592;9.634;2023-02-21T13:06:41;2.37;;;2.17;;
1601;SDS011;794;48.592;9.634;2023-02-21T13:09:16;2.10;;;1.50;;
1601;SDS011;794;48.592;9.634;2023-02-21T13:11:49;6.10;;;2.83;;
1601;SDS011;794;48.592;9.634;2023-02-21T13:14:24;5.00;;;1.80;;
1601;SDS011;794;48.592;9.634;2023-02-21T13:16:56;2.40;;;1.87;;
1601;SDS011;794;48.592;9.634;2023-02-21T13:19:25;2.40;;;1.70;;
1601;SDS011;794;48.592;9.634;2023-02-21T13:25:32;4.47;;;2.00;;
1601;SDS011;794;48.592;9.634;2023-02-21T13:28:11;2.30;;;2.00;;
1601;SDS011;794;48.592;9.634;2023-02-21T13:30:44;3.50;;;2.10;;
1601;SDS011;794;48.592;9.634;2023-02-21T13:33:27;2.83;;;2.03;;
1601;SDS011;794;48.592;9.634;2023-02-21T13:36:01;7.03;;;2.03;;
1601;SDS011;794;48.592;9.634;2023-02-21T13:38:55;3.23;;;2.50;;
1601;SDS011;794;48.592;9.634;2023-02-21T13:41:26;4.73;;;2.27;;
1601;SDS011;794;48.592;9.634;2023-02-21T13:43:54;2.83;;;2.50;;
1601;SDS011;794;48.592;9.634;2023-02-21T13:46:23;4.27;;;2.97;;
1601;SDS011;794;48.592;9.634;2023-02-21T13:55:26;3.97;;;3.00;;
1601;SDS011;794;48.592;9.634;2023-02-21T14:01:17;3.50;;;3.13;;
1601;SDS011;794;48.592;9.634;2023-02-21T14:07:43;3.57;;;3.23;;
1601;SDS011;794;48.592;9.634;2023-02-21T14:10:27;2.90;;;2.53;;
1601;SDS011;794;48.592;9.634;2023-02-21T14:13:04;4.00;;;2.80;;
1601;SDS011;794;48.592;9.634;2023-02-21T14:15:43;2.80;;;2.30;;
1601;SDS011;794;48.592;9.634;2023-02-21T14:18:15;3.57;;;1.80;;
1601;SDS011;794;48.592;9.634;2023-02-21T14:20:45;3.00;;;2.43;;
1601;SDS011;794;48.592;9.634;2023-02-21T14:23:15;2.60;;;2.17;;
1601;SDS011;794;48.592;9.634;2023-02-21T14:25:54;3.53;;;2.13;;
1601;SDS011;794;48.592;9.634;2023-02-21T14:31:47;3.10;;;2.07;;
1601;SDS011;794;48.592;9.634;2023-02-21T14:34:19;4.47;;;2.00;;
1601;SDS011;794;48.592;9.634;2023-02-21T14:36:50;4.80;;;1.90;;
1601;SDS011;794;48.592;9.634;2023-02-21T14:39:18;4.20;;;2.13;;
1601;SDS011;794;48.592;9.634;2023-02-21T14:41:55;2.40;;;2.13;;
1601;SDS011;794;48.592;9.634;2023-02-21T14:44:36;3.10;;;2.57;;
1601;SDS011;794;48.592;9.634;2023-02-21T14:50:27;3.27;;;1.90;;
1601;SDS011;794;48.592;9.634;2023-02-21T14:53:06;2.87;;;1.60;;
1601;SDS011;794;48.592;9.634;2023-02-21T14:56:14;2.80;;;1.70;;
1601;SDS011;794;48.592;9.634;2023-02-21T14:59:18;2.80;;;1.80;;
1601;SDS011;794;48.592;9.634;2023-02-21T15:02:02;2.27;;;2.00;;
1601;SDS011;794;48.592;9.634;2023-02-21T15:04:45;3.73;;;2.00;;
1601;SDS011;794;48.592;9.634;2023-02-21T15:07:17;3.93;;;2.33;;
1601;SDS011;794;48.592;9.634;2023-02-21T15:12:41;4.20;;;2.40;;
1601;SDS011;794;48.592;9.634;2023-02-21T15:15:17;3.90;;;2.27;;
1601;SDS011;794;48.592;9.634;2023-02-21T15:20:35;2.73;;;1.60;;
1601;SDS011;794;48.592;9.634;2023-02-21T15:23:09;1.67;;;1.53;;
1601;SDS011;794;48.592;9.634;2023-02-21T15:25:38;2.97;;;1.63;;
1601;SDS011;794;48.592;9.634;2023-02-21T15:28:12;6.67;;;1.80;;
1601;SDS011;794;48.592;9.634;2023-02-21T15:30:55;2.27;;;1.53;;
1601;SDS011;794;48.592;9.634;2023-02-21T15:33:25;2.60;;;1.67;;
1601;SDS011;794;48.592;9.634;2023-02-21T15:35:56;1.33;;;1.23;;
1601;SDS011;794;48.592;9.634;2023-02-21T15:38:27;3.20;;;2.00;;
1601;SDS011;794;48.592;9.634;2023-02-21T15:40:58;1.97;;;1.50;;
1601;SDS011;794;48.592;9.634;2023-02-21T15:43:39;1.67;;;1.50;;
1601;SDS011;794;48.592;9.634;2023-02-21T15:46:14;1.73;;;1.57;;
1601;SDS011;794;48.592;9.634;2023-02-21T15:48:44;3.57;;;1.40;;
1601;SDS011;794;48.592;9.634;2023-02-21T15:51:12;2.20;;;1.60;;
1601;SDS011;794;48.592;9.634;2023-02-21T15:53:41;3.10;;;1.70;;
1601;SDS011;794;48.592;9.634;2023-02-21T15:56:14;1.57;;;1.30;;
1601;SDS011;794;48.592;9.634;2023-02-21T15:59:09;3.67;;;2.30;;
1601;SDS011;794;48.592;9.634;2023-02-21T16:01:39;2.20;;;2.00;;
1601;SDS011;794;48.592;9.634;2023-02-21T16:04:14;4.20;;;2.83;;
1601;SDS011;794;48.592;9.634;2023-02-21T16:06:52;3.47;;;1.90;;
1601;SDS011;794;48.592;9.634;2023-02-21T16:09:23;2.67;;;2.10;;
1601;SDS011;794;48.592;9.634;2023-02-21T16:11:54;5.10;;;1.97;;
1601;SDS011;794;48.592;9.634;2023-02-21T16:14:28;2.87;;;2.30;;
1601;SDS011;794;48.592;9.634;2023-02-21T16:17:12;4.20;;;2.00;;
1601;SDS011;794;48.592;9.634;2023-02-21T16:19:46;3.40;;;2.40;;
1601;SDS011;794;48.592;9.634;2023-02-21T16:22:29;8.90;;;3.20;;
1601;SDS011;794;48.592;9.634;2023-02-21T16:27:51;3.70;;;2.10;;
1601;SDS011;794;48.592;9.634;2023-02-21T16:30:20;2.67;;;2.20;;
1601;SDS011;794;48.592;9.634;2023-02-21T16:32:53;2.23;;;2.00;;
1601;SDS011;794;48.592;9.634;2023-02-21T16:35:25;2.00;;;1.53;;
1601;SDS011;794;48.592;9.634;2023-02-21T16:37:53;2.90;;;2.00;;
1601;SDS011;794;48.592;9.634;2023-02-21T16:40:22;2.97;;;1.80;;
1601;SDS011;794;48.592;9.634;2023-02-21T16:42:50;2.10;;;1.90;;
1601;SDS011;794;48.592;9.634;2023-02-21T16:45:18;2.60;;;2.00;;
1601;SDS011;794;48.592;9.634;2023-02-21T16:47:46;7.80;;;2.40;;
1601;SDS011;794;48.592;9.634;2023-02-21T16:50:19;3.23;;;2.43;;